createdAt,value
2019-01-14T00:01:58.814Z,221.20
2019-01-14T00:04:30.592Z,184.40
2019-01-14T00:07:02.313Z,210.20
2019-01-14T00:09:34.000Z,215.80
2019-01-14T00:12:05.724Z,219.40
2019-01-14T00:14:38.405Z,209.40
2019-01-14T00:17:10.287Z,210.20
2019-01-14T00:19:41.854Z,203.60
2019-01-14T00:22:13.701Z,224.80
2019-01-14T00:24:45.292Z,192.60
2019-01-14T00:27:16.744Z,183.60
2019-01-14T00:29:48.320Z,192.40
2019-01-14T00:32:20.013Z,196.80
2019-01-14T00:34:51.743Z,184.60
2019-01-14T00:37:23.454Z,179.60
2019-01-14T00:39:54.903Z,195.60
2019-01-14T00:42:27.241Z,187.80
2019-01-14T00:44:58.757Z,195.40
2019-01-14T00:47:30.609Z,183.20
2019-01-14T00:50:02.329Z,186.80
2019-01-14T00:52:34.430Z,168.60
2019-01-14T00:55:06.400Z,209.80
2019-01-14T00:57:38.464Z,217.20
2019-01-14T01:00:23.077Z,199.20
2019-01-14T01:02:56.203Z,192.20
2019-01-14T01:05:27.551Z,189.20
2019-01-14T01:07:59.089Z,161.20
2019-01-14T01:10:30.828Z,208.20
2019-01-14T01:13:02.780Z,180.60
2019-01-14T01:15:34.556Z,187.40
2019-01-14T01:18:06.596Z,194.00
2019-01-14T01:20:38.242Z,184.80
2019-01-14T01:23:10.222Z,204.80
2019-01-14T01:25:41.575Z,185.80
2019-01-14T01:28:14.571Z,192.80
2019-01-14T01:30:46.318Z,206.40
2019-01-14T01:33:18.084Z,161.60
2019-01-14T01:35:49.416Z,176.80
2019-01-14T01:38:21.316Z,191.40
2019-01-14T01:40:52.730Z,193.20
2019-01-14T01:43:23.998Z,180.00
2019-01-14T01:45:55.471Z,173.40
2019-01-14T01:48:27.155Z,172.80
2019-01-14T01:50:58.313Z,187.00
2019-01-14T01:53:31.423Z,198.20
2019-01-14T01:56:02.731Z,191.00
2019-01-14T01:58:34.265Z,192.40
2019-01-14T02:01:06.438Z,196.20
2019-01-14T02:03:38.370Z,204.60
2019-01-14T02:06:10.114Z,189.60
2019-01-14T02:08:41.652Z,185.20
2019-01-14T02:11:13.566Z,166.60
2019-01-14T02:13:45.120Z,181.40
2019-01-14T02:16:17.664Z,214.60
2019-01-14T02:18:49.058Z,207.80
2019-01-14T02:21:20.419Z,211.80
2019-01-14T02:23:52.036Z,198.60
2019-01-14T02:26:23.979Z,197.40
2019-01-14T02:28:55.680Z,175.60
2019-01-14T02:31:27.594Z,199.40
2019-01-14T02:33:59.448Z,188.60
2019-01-14T02:36:30.754Z,190.00
2019-01-14T02:39:02.291Z,192.20
2019-01-14T02:41:35.259Z,175.60
2019-01-14T02:44:06.811Z,189.60
2019-01-14T02:46:38.158Z,158.40
2019-01-14T02:49:09.984Z,179.20
2019-01-14T02:51:41.393Z,194.00
2019-01-14T02:54:15.639Z,182.60
2019-01-14T02:56:47.186Z,192.60
2019-01-14T02:59:19.788Z,202.60
2019-01-14T03:01:51.186Z,179.20
2019-01-14T03:04:22.732Z,168.20
2019-01-14T03:06:57.965Z,204.20
2019-01-14T03:09:27.029Z,201.00
2019-01-14T03:11:58.248Z,178.60
2019-01-14T03:14:29.792Z,201.40
2019-01-14T03:17:01.586Z,184.20
2019-01-14T03:19:33.032Z,199.00
2019-01-14T03:22:04.273Z,192.40
2019-01-14T03:24:35.843Z,203.00
2019-01-14T03:27:07.327Z,193.20
2019-01-14T03:29:39.581Z,212.40
2019-01-14T03:32:11.489Z,193.40
2019-01-14T03:34:44.239Z,206.40
2019-01-14T03:37:15.583Z,186.60
2019-01-14T03:39:46.978Z,189.20
2019-01-14T03:42:18.499Z,206.60
2019-01-14T03:44:50.018Z,189.60
2019-01-14T03:47:21.384Z,201.60
2019-01-14T03:49:53.096Z,195.00
2019-01-14T03:52:24.587Z,207.00
2019-01-14T03:54:56.202Z,228.75
2019-01-14T03:57:27.636Z,249.00
2019-01-14T03:59:59.364Z,246.00
2019-01-14T04:02:30.865Z,251.00
2019-01-14T04:05:02.699Z,220.50
2019-01-14T04:07:34.299Z,206.50
2019-01-14T04:10:07.146Z,205.75
2019-01-14T04:12:38.760Z,208.80
2019-01-14T04:15:11.560Z,211.80
2019-01-14T04:17:43.220Z,205.80
2019-01-14T04:20:16.877Z,199.60
2019-01-14T04:22:48.843Z,188.20
2019-01-14T04:25:20.341Z,189.80
2019-01-14T04:27:52.101Z,195.00
2019-01-14T04:30:25.534Z,202.40
2019-01-14T04:32:57.003Z,170.20
2019-01-14T04:35:28.801Z,183.80
2019-01-14T04:38:00.409Z,182.20
2019-01-14T04:40:32.005Z,159.20
2019-01-14T04:43:04.170Z,147.20
2019-01-14T04:45:35.709Z,146.60
2019-01-14T04:48:08.489Z,149.00
2019-01-14T04:50:39.911Z,151.00
2019-01-14T04:53:12.243Z,155.80
2019-01-14T04:55:43.637Z,136.60
2019-01-14T04:58:15.317Z,141.60
2019-01-14T05:00:46.972Z,149.40
2019-01-14T05:03:18.537Z,146.60
2019-01-14T05:05:49.927Z,127.80
2019-01-14T05:08:21.640Z,138.80
2019-01-14T05:10:53.080Z,146.00
2019-01-14T05:13:24.807Z,138.20
2019-01-14T05:15:56.185Z,129.20
2019-01-14T05:18:27.654Z,138.60
2019-01-14T05:20:59.057Z,131.60
2019-01-14T05:23:31.555Z,116.20
2019-01-14T05:26:03.208Z,120.00
2019-01-14T05:28:35.189Z,117.00
2019-01-14T05:31:06.749Z,122.20
2019-01-14T05:33:38.330Z,126.80
2019-01-14T05:36:10.005Z,117.40
2019-01-14T05:38:41.340Z,121.80
2019-01-14T05:41:13.033Z,113.80
2019-01-14T05:43:44.439Z,115.40
2019-01-14T05:46:15.757Z,107.40
2019-01-14T05:48:47.149Z,112.00
2019-01-14T05:51:18.946Z,110.20
2019-01-14T05:53:50.823Z,110.20
2019-01-14T05:56:23.223Z,104.20
2019-01-14T05:58:54.631Z,111.60
2019-01-14T06:01:26.157Z,109.40
2019-01-14T06:03:57.692Z,111.60
2019-01-14T06:06:29.184Z,103.60
2019-01-14T06:09:00.462Z,105.40
2019-01-14T06:11:32.082Z,99.40
2019-01-14T06:14:03.474Z,98.40
2019-01-14T06:16:34.611Z,96.20
2019-01-14T06:19:06.219Z,99.00
2019-01-14T06:21:37.523Z,101.20
2019-01-14T06:24:09.421Z,100.60
2019-01-14T06:26:40.883Z,103.00
2019-01-14T06:29:12.574Z,98.20
2019-01-14T06:31:43.920Z,105.60
2019-01-14T06:34:15.417Z,102.40
2019-01-14T06:36:47.094Z,103.80
2019-01-14T06:39:18.784Z,102.60
2019-01-14T06:41:50.205Z,96.60
2019-01-14T06:44:21.889Z,99.80
2019-01-14T06:46:53.316Z,91.40
2019-01-14T06:49:28.629Z,98.00
2019-01-14T06:52:09.599Z,94.60
2019-01-14T06:54:41.022Z,87.20
2019-01-14T06:57:12.412Z,85.60
2019-01-14T06:59:50.872Z,87.80
2019-01-14T07:02:22.688Z,87.40
2019-01-14T07:04:54.094Z,87.60
2019-01-14T07:07:25.512Z,90.20
2019-01-14T07:09:57.101Z,85.20
2019-01-14T07:12:28.772Z,87.20
2019-01-14T07:15:00.116Z,42.40
2019-01-14T07:17:32.816Z,72.00
2019-01-14T07:20:05.280Z,73.00
2019-01-14T07:22:36.826Z,72.60
2019-01-14T07:25:08.901Z,71.20
2019-01-14T07:27:43.422Z,68.00
2019-01-14T07:30:16.952Z,65.80
2019-01-14T07:32:48.529Z,64.20
2019-01-14T07:35:20.203Z,69.80
2019-01-14T07:37:52.028Z,65.40
2019-01-14T07:40:23.385Z,67.60
2019-01-14T07:42:54.870Z,65.00
2019-01-14T07:45:26.269Z,44.20
2019-01-14T07:47:57.820Z,66.00
2019-01-14T07:50:29.913Z,56.00
2019-01-14T07:53:01.459Z,54.00
2019-01-14T07:55:32.918Z,61.00
2019-01-14T07:58:04.591Z,44.60
2019-01-14T08:00:35.851Z,51.80
2019-01-14T08:03:07.266Z,57.40
2019-01-14T08:05:38.561Z,70.40
2019-01-14T08:08:13.925Z,67.60
2019-01-14T08:10:42.793Z,63.40
2019-01-14T08:13:22.683Z,65.80
2019-01-14T08:15:55.066Z,60.40
2019-01-14T08:18:26.379Z,63.00
2019-01-14T08:20:59.730Z,62.80
2019-01-14T08:23:40.667Z,59.50
2019-01-14T08:26:13.164Z,63.20
2019-01-14T08:28:44.622Z,62.60
2019-01-14T08:31:16.446Z,61.20
2019-01-14T08:33:47.936Z,52.40
2019-01-14T08:36:20.094Z,56.20
2019-01-14T08:38:51.665Z,47.80
2019-01-14T08:41:26.479Z,49.00
2019-01-14T08:44:01.911Z,60.80
2019-01-14T08:46:34.548Z,51.00
2019-01-14T08:49:05.952Z,57.80
2019-01-14T08:51:38.025Z,55.40
2019-01-14T08:54:09.257Z,57.00
2019-01-14T08:56:44.089Z,52.00
2019-01-14T08:59:15.425Z,49.60
2019-01-14T09:01:47.019Z,54.00
2019-01-14T09:04:22.353Z,60.20
2019-01-14T09:06:53.166Z,53.40
2019-01-14T09:09:24.518Z,62.60
2019-01-14T09:11:56.407Z,55.60
2019-01-14T09:14:27.716Z,56.20
2019-01-14T09:16:59.056Z,60.20
2019-01-14T09:19:30.527Z,52.80
2019-01-14T09:22:02.633Z,54.80
2019-01-14T09:24:35.224Z,58.00
2019-01-14T09:27:06.799Z,55.60
2019-01-14T09:29:38.150Z,56.20
2019-01-14T09:32:09.709Z,57.40
2019-01-14T09:34:41.289Z,66.40
2019-01-14T09:37:13.125Z,39.20
2019-01-14T09:39:44.795Z,61.00
2019-01-14T09:42:16.947Z,54.00
2019-01-14T09:44:48.307Z,52.80
2019-01-14T09:47:20.629Z,58.80
2019-01-14T09:49:52.496Z,60.40
2019-01-14T09:52:24.844Z,59.80
2019-01-14T09:54:56.623Z,65.20
2019-01-14T09:57:28.195Z,56.80
2019-01-14T10:00:00.290Z,59.00
2019-01-14T10:02:31.777Z,58.20
2019-01-14T10:05:03.929Z,56.20
2019-01-14T10:07:35.444Z,47.80
2019-01-14T10:10:08.598Z,49.40
2019-01-14T10:12:42.847Z,48.00
2019-01-14T10:15:17.220Z,49.60
2019-01-14T10:17:51.284Z,51.60
2019-01-14T10:20:24.897Z,51.20
2019-01-14T10:22:56.254Z,43.60
2019-01-14T10:25:28.075Z,45.80
2019-01-14T10:27:59.388Z,42.80
2019-01-14T10:41:53.053Z,50.40
2019-01-14T10:44:24.777Z,46.60
2019-01-14T10:46:56.091Z,54.40
2019-01-14T10:49:27.792Z,45.20
2019-01-14T10:51:59.013Z,48.40
2019-01-14T10:54:30.723Z,45.80
2019-01-14T10:57:03.010Z,43.20
2019-01-14T10:59:34.644Z,43.20
2019-01-14T11:02:06.244Z,44.80
2019-01-14T11:04:37.829Z,45.80
2019-01-14T11:07:09.327Z,56.60
2019-01-14T11:09:44.534Z,43.40
2019-01-14T11:12:14.007Z,48.40
2019-01-14T11:14:45.528Z,62.20
2019-01-14T11:17:17.224Z,59.60
2019-01-14T11:19:48.663Z,61.60
2019-01-14T11:22:20.290Z,60.40
2019-01-14T11:24:52.419Z,58.60
2019-01-14T11:27:24.216Z,66.20
2019-01-14T11:29:55.978Z,55.60
2019-01-14T11:32:27.458Z,61.80
2019-01-14T11:34:58.863Z,52.60
2019-01-14T11:37:30.491Z,54.80
2019-01-14T11:40:01.791Z,55.80
2019-01-14T11:42:33.608Z,48.80
2019-01-14T11:45:05.150Z,46.80
2019-01-14T11:47:36.723Z,58.40
2019-01-14T11:50:10.286Z,50.40
2019-01-14T11:52:42.114Z,48.20
2019-01-14T11:55:28.649Z,49.20
2019-01-14T11:58:00.892Z,45.80
2019-01-14T12:00:36.583Z,47.00
2019-01-14T12:03:05.659Z,42.40
2019-01-14T12:05:36.866Z,50.40
2019-01-14T12:08:08.237Z,50.60
2019-01-14T12:10:39.644Z,47.20
2019-01-14T12:13:10.928Z,49.20
2019-01-14T12:15:41.828Z,60.60
2019-01-14T12:18:13.102Z,57.40
2019-01-14T12:20:44.091Z,58.80
2019-01-14T12:23:15.512Z,54.40
2019-01-14T12:25:47.147Z,67.80
2019-01-14T12:28:19.032Z,72.80
2019-01-14T12:30:50.333Z,70.20
2019-01-14T12:33:21.713Z,74.80
2019-01-14T12:35:52.664Z,74.40
2019-01-14T12:38:24.870Z,78.00
2019-01-14T12:40:55.949Z,83.20
2019-01-14T12:43:27.308Z,78.00
2019-01-14T12:45:58.499Z,85.20
2019-01-14T12:48:30.094Z,83.80
2019-01-14T12:51:01.850Z,80.20
2019-01-14T12:53:33.296Z,83.00
2019-01-14T12:56:04.635Z,88.00
2019-01-14T12:58:36.397Z,88.60
2019-01-14T13:01:07.608Z,87.80
2019-01-14T13:03:39.041Z,97.00
2019-01-14T13:06:10.505Z,102.00
2019-01-14T13:08:42.049Z,101.80
2019-01-14T13:11:13.356Z,98.20
2019-01-14T13:13:44.493Z,102.00
2019-01-14T13:16:15.835Z,100.00
2019-01-14T13:18:47.206Z,99.40
2019-01-14T13:21:18.817Z,101.80
2019-01-14T13:23:50.415Z,100.00
2019-01-14T13:26:21.884Z,96.40
2019-01-14T13:28:53.827Z,102.20
2019-01-14T13:31:25.503Z,93.60
2019-01-14T13:33:57.125Z,97.00
2019-01-14T13:36:28.550Z,94.40
2019-01-14T13:38:59.890Z,97.80
2019-01-14T13:41:31.779Z,98.20
2019-01-14T13:44:02.969Z,96.80
2019-01-14T13:46:34.707Z,96.20
2019-01-14T13:49:06.458Z,92.20
2019-01-14T13:51:38.204Z,100.60
2019-01-14T13:54:10.069Z,96.20
2019-01-14T13:56:41.719Z,102.80
2019-01-14T13:59:13.342Z,97.20
2019-01-14T14:01:44.888Z,97.80
2019-01-14T14:04:16.578Z,99.00
2019-01-14T14:06:47.931Z,101.00
2019-01-14T14:09:19.010Z,104.40
2019-01-14T14:11:50.346Z,104.60
2019-01-14T14:14:22.287Z,101.80
2019-01-14T14:16:53.662Z,101.00
2019-01-14T14:19:25.069Z,107.00
2019-01-14T14:21:56.500Z,102.00
2019-01-14T14:24:28.310Z,103.00
2019-01-14T14:27:00.243Z,103.80
2019-01-14T14:29:31.707Z,101.80
2019-01-14T14:32:04.462Z,104.40
2019-01-14T14:34:36.436Z,129.40
2019-01-14T14:37:07.978Z,186.00
2019-01-14T14:39:39.871Z,240.75
2019-01-14T14:42:11.493Z,259.50
2019-01-14T14:44:43.061Z,232.25
2019-01-14T14:47:15.119Z,179.50
2019-01-14T14:49:46.592Z,218.75
2019-01-14T14:52:18.031Z,198.25
2019-01-14T14:54:49.865Z,170.75
2019-01-14T14:57:21.277Z,215.00
2019-01-14T14:59:52.908Z,263.50
2019-01-14T15:02:23.959Z,210.25
2019-01-14T15:04:55.168Z,183.50
2019-01-14T15:07:26.781Z,158.40
2019-01-14T15:09:59.661Z,138.40
2019-01-14T15:12:30.983Z,129.60
2019-01-14T15:15:02.400Z,134.75
2019-01-14T15:17:33.466Z,230.25
2019-01-14T15:20:06.545Z,339.25
2019-01-14T15:22:37.994Z,349.50
2019-01-14T15:25:09.207Z,445.60
2019-01-14T15:27:41.510Z,459.00
2019-01-14T15:30:19.729Z,115.80
2019-01-14T15:32:51.189Z,112.00
2019-01-14T15:35:23.140Z,140.00
2019-01-14T15:37:54.793Z,139.20
2019-01-14T15:40:26.810Z,128.00
2019-01-14T15:42:59.097Z,107.60
2019-01-14T15:45:30.476Z,112.80
2019-01-14T15:48:03.353Z,110.20
2019-01-14T15:50:34.749Z,111.20
2019-01-14T15:53:06.064Z,113.40
2019-01-14T15:55:39.109Z,114.80
2019-01-14T15:58:11.019Z,121.00
2019-01-14T16:00:42.411Z,115.00
2019-01-14T16:03:13.896Z,115.40
2019-01-14T16:05:45.550Z,118.60
2019-01-14T16:08:17.428Z,123.80
2019-01-14T16:10:48.844Z,105.00
2019-01-14T16:13:20.371Z,113.20
2019-01-14T16:15:51.675Z,118.60
2019-01-14T16:18:23.044Z,121.20
2019-01-14T16:20:54.502Z,114.80
2019-01-14T16:23:26.071Z,115.80
2019-01-14T16:25:57.536Z,112.60
2019-01-14T16:28:30.268Z,116.80
2019-01-14T16:31:01.989Z,116.40
2019-01-14T16:33:34.068Z,115.00
2019-01-14T16:36:05.523Z,111.20
2019-01-14T16:38:37.013Z,110.80
2019-01-14T16:41:08.390Z,121.60
2019-01-14T16:43:39.841Z,117.60
2019-01-14T16:46:12.294Z,113.20
2019-01-14T16:48:43.962Z,111.20
2019-01-14T16:51:15.245Z,112.60
2019-01-14T16:53:46.712Z,113.20
2019-01-14T16:56:18.511Z,106.40
2019-01-14T16:58:50.652Z,109.60
2019-01-14T17:01:22.095Z,109.20
2019-01-14T17:03:53.536Z,108.40
2019-01-14T17:06:24.802Z,106.80
2019-01-14T17:08:56.467Z,109.20
2019-01-14T17:11:28.213Z,111.00
2019-01-14T17:13:59.532Z,105.20
2019-01-14T17:16:30.736Z,105.20
2019-01-14T17:19:03.412Z,97.80
2019-01-14T17:21:34.881Z,105.20
2019-01-14T17:24:06.508Z,105.20
2019-01-14T17:26:38.008Z,97.60
2019-01-14T17:29:11.193Z,102.40
2019-01-14T17:31:44.852Z,98.60
2019-01-14T17:34:16.721Z,97.80
2019-01-14T17:36:48.509Z,105.00
2019-01-14T17:39:20.105Z,98.80
2019-01-14T17:41:52.044Z,99.60
2019-01-14T17:44:23.739Z,105.60
2019-01-14T17:46:55.295Z,101.80
2019-01-14T17:49:26.937Z,104.20
2019-01-14T17:51:58.390Z,98.60
2019-01-14T17:54:30.037Z,99.60
2019-01-14T17:57:01.216Z,106.60
2019-01-14T17:59:32.702Z,100.80
2019-01-14T18:02:04.432Z,100.40
2019-01-14T18:04:35.838Z,100.60
2019-01-14T18:07:06.974Z,99.80
2019-01-14T18:09:39.079Z,103.00
2019-01-14T18:12:10.418Z,95.20
2019-01-14T18:14:41.649Z,99.00
2019-01-14T18:17:13.047Z,100.60
2019-01-14T18:19:44.322Z,104.20
2019-01-14T18:22:15.520Z,95.60
2019-01-14T18:24:46.986Z,98.20
2019-01-14T18:27:18.594Z,92.60
2019-01-14T18:29:50.311Z,95.20
2019-01-14T18:32:21.474Z,99.60
2019-01-14T18:34:53.035Z,95.20
2019-01-14T18:37:24.182Z,104.60
2019-01-14T18:39:56.258Z,99.60
2019-01-14T18:42:27.591Z,107.80
2019-01-14T18:44:59.185Z,102.40
2019-01-14T18:47:30.785Z,100.80
2019-01-14T18:50:01.979Z,102.60
2019-01-14T18:52:33.231Z,96.60
2019-01-14T18:55:04.540Z,97.40
2019-01-14T18:57:35.718Z,94.20
2019-01-14T19:00:10.304Z,107.60
2019-01-14T19:02:42.157Z,102.40
2019-01-14T19:05:13.506Z,107.80
2019-01-14T19:07:44.990Z,108.00
2019-01-14T19:10:17.013Z,102.60
2019-01-14T19:12:48.809Z,101.20
2019-01-14T19:15:21.514Z,107.80
2019-01-14T19:17:53.998Z,96.80
2019-01-14T19:20:27.402Z,107.60
2019-01-14T19:22:59.937Z,107.80
2019-01-14T19:25:31.359Z,101.00
2019-01-14T19:28:02.607Z,108.80
2019-01-14T19:30:33.730Z,103.80
2019-01-14T19:33:05.357Z,98.40
2019-01-14T19:35:36.649Z,107.80
2019-01-14T19:38:08.023Z,107.00
2019-01-14T19:40:39.414Z,103.00
2019-01-14T19:43:11.159Z,98.80
2019-01-14T19:45:49.718Z,103.00
2019-01-14T19:48:17.821Z,98.20
2019-01-14T19:50:49.008Z,99.40
2019-01-14T19:53:20.317Z,105.20
2019-01-14T19:55:51.510Z,101.60
2019-01-14T19:58:22.903Z,98.20
2019-01-14T20:00:54.461Z,103.40
2019-01-14T20:03:25.797Z,101.40
2019-01-14T20:05:57.301Z,102.60
2019-01-14T20:08:28.760Z,93.00
2019-01-14T20:10:59.818Z,103.00
2019-01-14T20:13:31.103Z,103.20
2019-01-14T20:16:02.290Z,107.20
2019-01-14T20:18:33.583Z,100.50
2019-01-14T20:21:05.375Z,106.20
2019-01-14T20:23:37.350Z,104.60
2019-01-14T20:26:08.539Z,102.60
2019-01-14T20:28:39.930Z,102.60
2019-01-14T20:31:11.151Z,101.20
2019-01-14T20:33:42.474Z,102.40
2019-01-14T20:36:13.703Z,99.80
2019-01-14T20:38:45.249Z,108.40
2019-01-14T20:41:18.655Z,102.60
2019-01-14T20:43:49.774Z,99.40
2019-01-14T20:46:21.131Z,97.80
2019-01-14T20:48:52.978Z,98.00
2019-01-14T20:51:24.469Z,105.60
2019-01-14T20:53:55.922Z,93.60
2019-01-14T20:56:27.428Z,99.40
2019-01-14T20:58:58.792Z,97.20
2019-01-14T21:01:30.444Z,105.20
2019-01-14T21:04:03.119Z,102.00
2019-01-14T21:06:34.416Z,85.80
2019-01-14T21:09:08.011Z,93.40
2019-01-14T21:11:40.678Z,93.40
2019-01-14T21:14:12.452Z,97.00
2019-01-14T21:16:44.055Z,92.60
2019-01-14T21:19:15.792Z,98.20
2019-01-14T21:21:47.837Z,94.80
2019-01-14T21:24:19.578Z,93.80
2019-01-14T21:26:51.053Z,93.60
2019-01-14T21:29:25.984Z,96.20
2019-01-14T21:31:57.075Z,94.40
2019-01-14T21:34:28.682Z,97.40
2019-01-14T21:37:00.276Z,94.00
2019-01-14T21:39:31.561Z,98.80
2019-01-14T21:42:03.125Z,97.00
2019-01-14T21:44:34.559Z,92.60
2019-01-14T21:47:06.228Z,93.60
2019-01-14T21:49:37.983Z,93.20
2019-01-14T21:52:10.307Z,89.60
2019-01-14T21:54:41.684Z,90.80
2019-01-14T21:57:13.042Z,96.20
2019-01-14T21:59:45.032Z,82.00
2019-01-14T22:02:16.592Z,93.00
2019-01-14T22:04:47.773Z,91.00
2019-01-14T22:07:19.460Z,95.80
2019-01-14T22:09:51.308Z,95.40
2019-01-14T22:12:22.755Z,96.60
2019-01-14T22:14:54.457Z,91.20
2019-01-14T22:17:26.075Z,89.20
2019-01-14T22:19:57.739Z,91.20
2019-01-14T22:22:29.662Z,93.00
2019-01-14T22:25:01.324Z,96.40
2019-01-14T22:27:32.744Z,91.00
2019-01-14T22:30:04.697Z,90.40
2019-01-14T22:32:36.298Z,85.60
2019-01-14T22:35:11.053Z,93.80
2019-01-14T22:37:42.478Z,90.20
2019-01-14T22:40:14.725Z,95.60
2019-01-14T22:42:46.418Z,87.40
2019-01-14T22:45:18.238Z,93.40
2019-01-14T22:47:49.593Z,87.20
2019-01-14T22:50:21.478Z,94.80
2019-01-14T22:52:53.023Z,85.00
2019-01-14T22:55:24.661Z,86.80
2019-01-14T22:57:55.965Z,82.20
2019-01-14T23:00:54.526Z,94.00
2019-01-14T23:03:26.307Z,89.20
2019-01-14T23:05:57.516Z,100.80
2019-01-14T23:08:28.964Z,92.20
2019-01-14T23:11:00.122Z,88.80
2019-01-14T23:13:31.913Z,91.60
2019-01-14T23:16:03.166Z,90.80
2019-01-14T23:18:34.713Z,93.80
2019-01-14T23:21:06.034Z,82.80
2019-01-14T23:23:39.391Z,91.60
2019-01-14T23:26:12.402Z,90.40
2019-01-14T23:28:44.335Z,94.60
2019-01-14T23:31:16.165Z,89.40
2019-01-14T23:33:47.762Z,86.40
2019-01-14T23:36:19.189Z,101.40
2019-01-14T23:38:51.116Z,88.00
2019-01-14T23:41:22.426Z,90.60
2019-01-14T23:43:54.041Z,89.80
2019-01-14T23:46:25.394Z,93.60
2019-01-14T23:48:56.942Z,90.20
2019-01-14T23:51:28.259Z,89.80
2019-01-14T23:54:00.398Z,92.20
2019-01-14T23:56:33.479Z,91.80
2019-01-14T23:59:05.288Z,95.20
